Time;durP1;ratioP1;P1;durP2;ratioP2;P2;SDS_P1;SDS_P2;PMS_P1;PMS_P2;Temp;Humidity;BMP_temperature;BMP_pressure;BME280_temperature;BME280_humidity;BME280_pressure;Samples;Min_cycle;Max_cycle;Signal;HPM_P1;HPM_P2
2021/08/07 00:00:53;;;;;;;;;2.67;1.00;;;;;18.62;53.75;100297.59;4857960;29;45312;-90
2021/08/07 00:03:19;;;;;;;;;0.00;0.00;;;;;18.57;54.11;100292.69;4857982;29;45609;-89
2021/08/07 00:05:45;;;;;;;;;0.00;0.00;;;;;18.58;54.51;100299.63;4841872;29;45837;-90
2021/08/07 00:08:11;;;;;;;;;1.00;1.00;;;;;18.56;54.22;100298.88;4854161;29;45364;-89
2021/08/07 00:10:36;;;;;;;;;2.67;1.00;;;;;18.52;54.18;100294.84;4841926;29;45831;-90
2021/08/07 00:13:03;;;;;;;;;1.00;1.00;;;;;18.44;54.85;100287.50;4857816;29;45706;-89
2021/08/07 00:15:29;;;;;;;;;0.67;0.00;;;;;18.41;54.62;100293.84;4843445;29;46291;-89
2021/08/07 00:17:55;;;;;;;;;2.00;1.67;;;;;18.40;54.72;100286.06;4845547;29;44879;-90
2021/08/07 00:20:20;;;;;;;;;1.00;1.00;;;;;18.36;55.03;100287.25;4838783;29;45433;-90
2021/08/07 00:22:46;;;;;;;;;1.33;0.67;;;;;18.31;54.91;100287.59;4838974;29;45249;-90
2021/08/07 00:25:11;;;;;;;;;0.00;0.00;;;;;18.29;55.35;100294.78;4824776;29;45426;-90
2021/08/07 00:27:37;;;;;;;;;1.33;0.00;;;;;18.24;55.20;100281.13;4841643;29;45417;-89
2021/08/07 00:30:05;;;;;;;;;0.00;0.00;;;;;18.26;55.31;100292.38;4824806;29;45579;-90
2021/08/07 00:32:30;;;;;;;;;1.00;0.00;;;;;18.23;55.38;100285.56;4825019;29;44847;-90
2021/08/07 00:34:55;;;;;;;;;2.33;0.33;;;;;18.21;55.51;100282.22;4824689;29;45688;-90
2021/08/07 00:37:21;;;;;;;;;2.67;1.00;;;;;18.19;55.10;100284.09;4840380;29;45515;-90
2021/08/07 00:39:46;;;;;;;;;0.00;0.00;;;;;18.18;55.13;100276.34;4838829;29;45459;-89
2021/08/07 00:42:12;;;;;;;;;2.00;0.67;;;;;18.16;55.16;100279.91;4834875;29;45563;-89
2021/08/07 00:44:38;;;;;;;;;2.33;0.00;;;;;18.13;55.74;100269.63;4841291;29;46966;-91
2021/08/07 00:47:04;;;;;;;;;2.67;0.00;;;;;18.14;55.58;100279.19;4843249;29;45283;-90
2021/08/07 00:49:30;;;;;;;;;0.33;0.33;;;;;18.14;55.63;100280.97;4840064;29;44818;-90
2021/08/07 00:51:55;;;;;;;;;0.33;0.00;;;;;18.10;55.92;100271.66;4857628;29;45309;-90
2021/08/07 00:54:20;;;;;;;;;2.00;1.00;;;;;18.10;55.88;100269.84;4841905;29;46979;-91
2021/08/07 00:56:46;;;;;;;;;4.00;1.67;;;;;18.10;55.86;100274.28;4857538;29;45984;-90
2021/08/07 00:59:11;;;;;;;;;3.00;1.00;;;;;18.10;55.83;100276.91;4852164;29;45381;-91
2021/08/07 01:01:44;;;;;;;;;0.67;0.67;;;;;18.08;55.65;100269.13;4823806;29;45316;-90
2021/08/07 01:04:17;;;;;;;;;1.00;1.00;;;;;18.08;56.01;100274.38;4826475;29;46192;-90
2021/08/07 01:07:13;;;;;;;;;1.00;1.00;;;;;18.05;55.57;100266.69;4841789;29;45416;-91
2021/08/07 01:10:15;;;;;;;;;1.00;0.00;;;;;18.06;56.03;100264.91;4829465;29;45375;-91
2021/08/07 01:12:49;;;;;;;;;0.00;0.00;;;;;18.03;55.81;100260.69;4844991;29;45287;-91
2021/08/07 01:15:21;;;;;;;;;2.00;0.00;;;;;18.02;55.63;100259.84;4842560;29;45557;-90
2021/08/07 01:17:47;;;;;;;;;1.00;1.00;;;;;17.99;55.89;100253.97;4826159;29;46043;-90
2021/08/07 01:20:22;;;;;;;;;1.00;1.00;;;;;18.01;56.08;100260.81;4828224;29;45453;-90
2021/08/07 01:23:08;;;;;;;;;0.67;0.00;;;;;17.98;56.12;100253.16;4844753;29;45252;-90
2021/08/07 01:25:53;;;;;;;;;0.33;0.33;;;;;17.92;56.11;100253.63;4845847;29;45402;-91
2021/08/07 01:28:20;;;;;;;;;0.00;0.00;;;;;17.89;56.06;100256.47;4860050;29;45563;-90
2021/08/07 01:30:48;;;;;;;;;0.00;0.00;;;;;17.89;56.24;100251.22;4843288;29;45391;-91
2021/08/07 01:33:16;;;;;;;;;1.00;1.00;;;;;17.85;55.90;100252.38;4826593;29;45407;-90
2021/08/07 01:35:42;;;;;;;;;0.33;0.33;;;;;17.77;55.85;100253.78;4833066;29;45375;-91
2021/08/07 01:38:09;;;;;;;;;3.00;0.00;;;;;17.79;56.13;100258.09;4844345;29;45476;-90
2021/08/07 01:40:35;;;;;;;;;2.00;1.00;;;;;17.73;55.86;100249.72;4859738;29;45410;-91
2021/08/07 01:43:01;;;;;;;;;0.00;0.00;;;;;17.68;56.24;100243.94;4858993;29;45307;-90
2021/08/07 01:45:26;;;;;;;;;1.00;1.00;;;;;17.66;56.14;100251.13;4844342;29;48800;-89
2021/08/07 01:48:11;;;;;;;;;1.33;0.67;;;;;17.64;56.29;100247.78;4844063;29;45642;-90
2021/08/07 01:50:58;;;;;;;;;1.00;1.00;;;;;17.61;56.49;100240.94;4844537;29;45416;-90
2021/08/07 01:53:29;;;;;;;;;2.00;1.00;;;;;17.65;56.72;100243.34;4834493;29;45616;-90
2021/08/07 01:56:03;;;;;;;;;1.00;0.00;;;;;17.65;56.76;100246.81;4841005;29;47501;-90
2021/08/07 01:58:41;;;;;;;;;0.33;0.33;;;;;17.59;56.59;100236.75;4826940;29;45509;-90
2021/08/07 02:01:07;;;;;;;;;1.00;1.00;;;;;17.59;56.70;100228.84;4842758;29;45315;-90
2021/08/07 02:03:34;;;;;;;;;0.00;0.00;;;;;17.57;56.34;100226.34;4852741;29;45619;-90
2021/08/07 02:06:00;;;;;;;;;2.00;2.00;;;;;17.55;56.83;100230.84;4840807;29;47900;-90
2021/08/07 02:08:26;;;;;;;;;1.00;1.00;;;;;17.56;56.79;100234.34;4827085;29;45189;-90
2021/08/07 02:10:52;;;;;;;;;4.67;1.00;;;;;17.53;56.86;100232.75;4841139;29;45470;-90
2021/08/07 02:13:20;;;;;;;;;0.00;0.00;;;;;17.48;56.63;100237.53;4842053;29;45424;-90
2021/08/07 02:15:48;;;;;;;;;1.33;0.00;;;;;17.45;56.87;100219.34;4841848;29;47314;-90
2021/08/07 02:18:20;;;;;;;;;0.33;0.00;;;;;17.41;57.14;100223.97;4840587;29;45302;-90
2021/08/07 02:20:46;;;;;;;;;1.00;1.00;;;;;17.35;56.81;100221.78;4826778;29;45401;-90
2021/08/07 02:23:17;;;;;;;;;1.33;1.00;;;;;17.34;56.80;100220.97;4825291;29;45425;-90
2021/08/07 02:25:44;;;;;;;;;1.00;0.00;;;;;17.32;57.41;100227.28;4839310;29;45724;-90
2021/08/07 02:28:13;;;;;;;;;0.67;0.00;;;;;17.31;57.54;100223.00;4843929;29;45404;-90
2021/08/07 02:30:43;;;;;;;;;1.33;1.00;;;;;17.30;57.30;100223.91;4843666;29;45402;-90
2021/08/07 02:33:09;;;;;;;;;1.00;0.00;;;;;17.28;57.21;100216.16;4842818;29;45399;-91
2021/08/07 02:35:36;;;;;;;;;4.00;1.00;;;;;17.30;57.30;100210.78;4858289;29;47388;-90
2021/08/07 02:38:03;;;;;;;;;1.33;0.00;;;;;17.33;57.58;100215.81;4844879;29;45364;-90
2021/08/07 02:40:29;;;;;;;;;1.33;1.00;;;;;17.30;57.50;100197.63;4843643;29;45746;-91
2021/08/07 02:42:58;;;;;;;;;2.33;1.00;;;;;17.36;57.43;100210.34;4840115;29;45388;-90
2021/08/07 02:45:25;;;;;;;;;3.67;0.00;;;;;17.36;57.12;100198.03;4824766;29;47221;-90
2021/08/07 02:47:51;;;;;;;;;0.33;0.33;;;;;17.36;57.54;100200.66;4837423;29;45515;-90
2021/08/07 02:50:17;;;;;;;;;1.00;1.00;;;;;17.35;57.49;100190.22;4843716;29;45492;-90
2021/08/07 02:52:45;;;;;;;;;2.67;1.00;;;;;17.39;57.67;100202.22;4845005;29;45503;-89
2021/08/07 02:55:11;;;;;;;;;1.00;1.00;;;;;17.36;57.67;100203.28;4842559;29;47760;-90
2021/08/07 02:57:36;;;;;;;;;6.00;1.00;;;;;17.38;57.59;100194.44;4843481;29;45899;-90
2021/08/07 03:00:03;;;;;;;;;1.00;1.00;;;;;17.37;57.49;100190.97;4844486;29;45308;-91
2021/08/07 03:02:29;;;;;;;;;1.67;1.67;;;;;17.34;57.68;100191.19;4843758;29;45450;-90
2021/08/07 03:04:54;;;;;;;;;1.00;1.00;;;;;17.36;57.52;100187.50;4836380;29;45484;-90
2021/08/07 03:07:20;;;;;;;;;1.00;0.00;;;;;17.40;57.55;100193.38;4825763;29;44820;-90
2021/08/07 03:09:45;;;;;;;;;1.00;1.00;;;;;17.40;57.43;100195.19;4826331;29;45319;-90
2021/08/07 03:12:11;;;;;;;;;0.00;0.00;;;;;17.43;57.84;100192.31;4825137;29;45576;-90
2021/08/07 03:14:37;;;;;;;;;1.00;1.00;;;;;17.39;57.59;100188.25;4839977;29;47796;-90
2021/08/07 03:17:04;;;;;;;;;2.67;0.00;;;;;17.39;57.65;100186.44;4853194;29;45555;-90
2021/08/07 03:19:29;;;;;;;;;1.00;1.00;;;;;17.40;57.93;100177.59;4840290;29;45486;-91
2021/08/07 03:21:55;;;;;;;;;2.33;0.00;;;;;17.37;57.72;100180.47;4839906;29;45620;-90
2021/08/07 03:24:20;;;;;;;;;2.67;1.00;;;;;17.38;58.00;100181.28;4839648;29;47865;-90
2021/08/07 03:26:46;;;;;;;;;2.67;1.00;;;;;17.38;58.08;100174.25;4829419;29;45514;-90
2021/08/07 03:29:11;;;;;;;;;1.00;0.00;;;;;17.37;57.60;100172.56;4843160;29;45517;-91
2021/08/07 03:31:37;;;;;;;;;0.33;0.33;;;;;17.36;58.08;100176.97;4858754;29;45310;-91
2021/08/07 03:34:02;;;;;;;;;0.67;0.00;;;;;17.34;58.25;100173.63;4858064;29;48764;-90
2021/08/07 03:36:28;;;;;;;;;1.00;0.00;;;;;17.36;58.02;100170.91;4856780;29;45389;-91
2021/08/07 03:38:53;;;;;;;;;1.67;1.00;;;;;17.36;57.93;100178.78;4843021;29;45479;-91
2021/08/07 03:41:19;;;;;;;;;1.00;1.00;;;;;17.35;58.24;100170.06;4858556;29;45587;-88
2021/08/07 03:43:44;;;;;;;;;2.33;1.00;;;;;17.33;58.34;100164.06;4858231;29;46522;-91
2021/08/07 03:46:10;;;;;;;;;1.00;0.00;;;;;17.36;58.17;100170.91;4842605;29;45427;-91
2021/08/07 03:48:35;;;;;;;;;2.00;1.33;;;;;17.36;58.32;100166.47;4845094;29;45617;-90
2021/08/07 03:51:00;;;;;;;;;1.00;1.00;;;;;17.36;58.10;100163.00;4825956;29;45503;-91
2021/08/07 03:53:26;;;;;;;;;1.00;1.00;;;;;17.34;58.02;100157.84;4825392;29;45339;-91
2021/08/07 03:55:51;;;;;;;;;1.00;1.00;;;;;17.36;58.19;100163.00;4824237;29;45470;-90
2021/08/07 03:58:17;;;;;;;;;1.00;0.67;;;;;17.35;58.24;100156.06;4832157;29;45459;-90
2021/08/07 04:00:42;;;;;;;;;2.33;1.00;;;;;17.37;58.34;100154.16;4842786;29;44934;-91
2021/08/07 04:03:08;;;;;;;;;0.33;0.33;;;;;17.36;58.67;100144.59;4843801;29;45567;-90
2021/08/07 04:05:34;;;;;;;;;1.67;0.33;;;;;17.35;58.52;100135.88;4857185;29;45369;-90
2021/08/07 04:08:11;;;;;;;;;3.33;1.00;;;;;17.39;58.90;100141.72;4842982;29;45357;-90
2021/08/07 04:10:38;;;;;;;;;1.00;1.00;;;;;17.35;58.76;100142.91;4834221;29;45513;-91
2021/08/07 04:13:04;;;;;;;;;1.00;1.00;;;;;17.34;58.50;100135.97;4828830;29;47364;-90
2021/08/07 04:15:30;;;;;;;;;1.67;1.00;;;;;17.35;58.29;100146.38;4841751;29;45545;-90
2021/08/07 04:17:55;;;;;;;;;2.00;1.00;;;;;17.31;58.62;100137.03;4842513;29;45389;-90
2021/08/07 04:20:21;;;;;;;;;3.00;1.00;;;;;17.27;58.83;100132.94;4838361;29;45444;-90
2021/08/07 04:22:47;;;;;;;;;1.00;1.00;;;;;17.29;58.90;100138.09;4839041;29;47530;-91
2021/08/07 04:25:13;;;;;;;;;4.33;0.67;;;;;17.30;58.79;100137.13;4824962;29;45507;-90
2021/08/07 04:27:39;;;;;;;;;3.00;1.00;;;;;17.30;58.93;100130.09;4825185;29;45744;-90
2021/08/07 04:30:06;;;;;;;;;1.00;1.00;;;;;17.28;59.18;100141.69;4844611;29;45484;-90
2021/08/07 04:32:31;;;;;;;;;1.00;1.00;;;;;17.27;58.68;100142.66;4857542;29;47324;-90
2021/08/07 04:34:57;;;;;;;;;0.67;0.67;;;;;17.24;58.97;100135.81;4843426;29;45451;-90
2021/08/07 04:37:23;;;;;;;;;1.00;1.00;;;;;17.22;58.95;100146.44;4842176;29;45741;-90
2021/08/07 04:39:48;;;;;;;;;3.00;1.00;;;;;17.16;59.25;100132.91;4845447;29;45777;-90
2021/08/07 04:42:14;;;;;;;;;3.67;1.00;;;;;17.09;59.52;100140.41;4845145;29;45917;-90
2021/08/07 04:44:39;;;;;;;;;1.00;1.00;;;;;17.09;59.45;100137.78;4846396;29;45435;-90
2021/08/07 04:47:05;;;;;;;;;2.33;1.00;;;;;17.08;59.77;100139.56;4845182;29;45414;-90
2021/08/07 04:49:31;;;;;;;;;3.33;1.33;;;;;17.05;59.68;100138.97;4861045;29;45475;-91
2021/08/07 04:51:57;;;;;;;;;3.00;2.00;;;;;17.05;59.46;100136.34;4858319;29;47460;-89
2021/08/07 04:54:22;;;;;;;;;3.67;2.00;;;;;16.98;59.95;100125.38;4846990;29;44723;-90
2021/08/07 04:56:48;;;;;;;;;1.00;1.00;;;;;16.95;59.47;100123.81;4860850;29;45479;-90
2021/08/07 04:59:13;;;;;;;;;0.00;0.00;;;;;16.96;59.77;100116.78;4860891;29;45646;-91
2021/08/07 05:01:39;;;;;;;;;3.00;1.00;;;;;16.96;59.92;100122.88;4843098;29;47243;-91
2021/08/07 05:04:04;;;;;;;;;1.33;1.00;;;;;16.98;60.13;100114.06;4857023;29;45324;-90
2021/08/07 05:06:29;;;;;;;;;3.00;1.00;;;;;16.93;59.80;100109.97;4846560;29;44826;-90
2021/08/07 05:08:55;;;;;;;;;2.00;1.00;;;;;16.96;60.05;100116.78;4860857;29;45239;-91
2021/08/07 05:11:20;;;;;;;;;5.00;2.00;;;;;16.97;60.08;100121.09;4846253;29;45353;-90
2021/08/07 05:13:46;;;;;;;;;1.00;1.00;;;;;16.96;60.35;100122.88;4856528;29;45545;-90
2021/08/07 05:16:11;;;;;;;;;4.67;0.33;;;;;16.92;60.30;100124.06;4826173;29;45949;-90
2021/08/07 05:18:37;;;;;;;;;2.00;1.00;;;;;16.84;60.37;100115.88;4844580;29;45510;-90
2021/08/07 05:21:02;;;;;;;;;2.00;2.00;;;;;16.82;59.87;100117.78;4827309;29;46671;-90
2021/08/07 05:23:27;;;;;;;;;1.67;1.67;;;;;16.76;60.54;100108.53;4842771;29;45465;-90
2021/08/07 05:25:53;;;;;;;;;1.00;1.00;;;;;16.77;60.82;100105.00;4826435;29;45481;-90
2021/08/07 05:28:18;;;;;;;;;3.00;3.00;;;;;16.78;61.17;100105.81;4826504;29;45568;-90
2021/08/07 05:30:47;;;;;;;;;1.67;1.33;;;;;16.79;60.85;100099.59;4827226;29;45880;-90
2021/08/07 05:33:12;;;;;;;;;2.00;2.00;;;;;16.79;60.80;100104.84;4826257;29;45445;-90
2021/08/07 05:35:37;;;;;;;;;2.00;1.67;;;;;16.78;60.81;100097.94;4828460;29;44782;-90
2021/08/07 05:38:03;;;;;;;;;3.00;1.33;;;;;16.79;60.67;100086.47;4841826;29;45546;-90
2021/08/07 05:40:28;;;;;;;;;3.00;2.00;;;;;16.84;61.13;100089.59;4841650;29;46093;-90
2021/08/07 05:42:54;;;;;;;;;2.33;1.67;;;;;16.82;60.88;100078.38;4841113;29;45354;-90
2021/08/07 05:45:19;;;;;;;;;2.00;1.00;;;;;16.84;61.06;100089.59;4840691;29;45279;-90
2021/08/07 05:47:45;;;;;;;;;2.00;2.00;;;;;16.84;61.44;100089.59;4845712;29;45512;-91
2021/08/07 05:50:10;;;;;;;;;1.00;1.00;;;;;16.86;60.80;100100.84;4840033;29;48248;-90
2021/08/07 05:52:36;;;;;;;;;2.00;2.00;;;;;16.88;60.74;100096.31;4841393;29;45261;-90
2021/08/07 05:55:03;;;;;;;;;3.33;1.00;;;;;16.91;61.32;100096.09;4827032;29;45414;-91
2021/08/07 05:57:28;;;;;;;;;1.00;1.00;;;;;16.91;60.94;100090.84;4841559;29;45543;-90
2021/08/07 05:59:56;;;;;;;;;1.00;0.00;;;;;16.93;60.81;100094.19;4825637;29;47262;-90
2021/08/07 06:02:21;;;;;;;;;1.67;1.00;;;;;16.96;61.07;100085.25;4841121;29;45348;-90
2021/08/07 06:04:48;;;;;;;;;1.00;1.00;;;;;16.99;61.16;100100.78;4841093;29;45549;-91
2021/08/07 06:07:13;;;;;;;;;3.00;1.00;;;;;16.99;61.33;100092.06;4841483;29;45364;-90
2021/08/07 06:09:39;;;;;;;;;3.67;1.00;;;;;16.99;61.21;100092.06;4843965;29;47141;-91
2021/08/07 06:12:04;;;;;;;;;3.00;1.00;;;;;16.94;61.40;100087.16;4844223;29;45275;-90
2021/08/07 06:14:30;;;;;;;;;2.00;1.33;;;;;16.96;61.31;100087.88;4844229;29;45275;-91
2021/08/07 06:16:55;;;;;;;;;1.67;1.67;;;;;16.96;61.64;100096.59;4843010;29;45417;-90
2021/08/07 06:19:21;;;;;;;;;1.00;1.00;;;;;17.00;61.19;100093.75;4846775;29;47218;-91
2021/08/07 06:21:47;;;;;;;;;1.00;1.00;;;;;16.96;61.82;100091.31;4825147;29;45803;-90
2021/08/07 06:24:12;;;;;;;;;2.67;1.00;;;;;16.97;61.56;100097.44;4825351;29;45334;-90
2021/08/07 06:26:40;;;;;;;;;2.00;1.00;;;;;17.02;61.66;100103.19;4824623;29;46644;-90
2021/08/07 06:29:06;;;;;;;;;1.00;1.00;;;;;16.99;61.49;100095.53;4828434;29;45627;-91
2021/08/07 06:31:31;;;;;;;;;3.33;2.00;;;;;16.99;62.27;100087.63;4825138;29;45493;-90
2021/08/07 06:33:57;;;;;;;;;1.00;1.00;;;;;16.99;61.93;100092.88;4840764;29;45386;-90
2021/08/07 06:36:23;;;;;;;;;2.33;1.00;;;;;17.03;62.19;100090.94;4825547;29;45323;-91
2021/08/07 06:38:49;;;;;;;;;1.00;1.00;;;;;16.99;61.96;100089.44;4846507;29;47278;-90
2021/08/07 06:41:14;;;;;;;;;1.67;1.67;;;;;17.02;61.87;100082.16;4846280;29;45332;-90
2021/08/07 06:43:39;;;;;;;;;0.33;0.33;;;;;17.01;61.79;100080.50;4844534;29;46014;-89
2021/08/07 06:46:05;;;;;;;;;2.00;1.00;;;;;17.04;62.58;100077.66;4826476;29;45518;-90
2021/08/07 06:48:31;;;;;;;;;1.00;1.00;;;;;17.06;62.41;100077.53;4825881;29;47272;-90
2021/08/07 06:50:56;;;;;;;;;2.00;1.33;;;;;17.05;62.45;100078.50;4835325;29;45954;-89
2021/08/07 06:53:22;;;;;;;;;2.67;1.00;;;;;17.07;62.26;100079.22;4833382;29;45457;-90
2021/08/07 06:55:47;;;;;;;;;5.00;2.33;;;;;17.05;62.59;100068.00;4846040;29;45529;-89
2021/08/07 06:58:13;;;;;;;;;2.33;2.00;;;;;17.03;62.60;100068.09;4856844;29;47048;-89
2021/08/07 07:00:39;;;;;;;;;3.67;1.00;;;;;16.99;62.52;100063.97;4857753;29;45400;-90
2021/08/07 07:03:12;;;;;;;;;2.67;2.00;;;;;17.02;62.94;100068.16;4837517;29;47143;-90
2021/08/07 07:05:38;;;;;;;;;2.33;1.00;;;;;17.06;62.62;100069.66;4844585;29;45304;-90
2021/08/07 07:08:03;;;;;;;;;1.00;1.00;;;;;17.07;62.67;100071.34;4842863;29;47362;-90
2021/08/07 07:10:32;;;;;;;;;1.00;1.00;;;;;17.09;62.87;100079.97;4842833;29;45816;-90
2021/08/07 07:12:58;;;;;;;;;1.00;1.00;;;;;17.11;63.31;100072.78;4836715;29;45469;-93
2021/08/07 07:15:24;;;;;;;;;3.00;1.00;;;;;17.12;62.86;100074.47;4856843;29;45284;-90
2021/08/07 07:17:59;;;;;;;;;1.33;1.33;;;;;17.16;63.03;100075.06;4837560;29;47291;-90
2021/08/07 07:20:24;;;;;;;;;3.00;1.00;;;;;17.18;63.09;100070.56;4851965;29;45379;-91
2021/08/07 07:22:56;;;;;;;;;2.33;2.00;;;;;17.23;63.17;100079.75;4842864;29;45395;-89
2021/08/07 07:25:21;;;;;;;;;2.00;2.00;;;;;17.31;62.90;100081.81;4827111;29;45783;-90
2021/08/07 07:27:50;;;;;;;;;2.00;2.00;;;;;17.37;63.17;100075.28;4826147;29;45381;-89
2021/08/07 07:30:16;;;;;;;;;1.67;1.00;;;;;17.44;63.42;100073.00;4836873;29;45330;-90
2021/08/07 07:32:45;;;;;;;;;2.00;2.00;;;;;17.50;62.66;100077.81;4839578;29;45324;-90
2021/08/07 07:35:11;;;;;;;;;2.67;1.67;;;;;17.60;63.08;100080.56;4825966;29;45353;-90
2021/08/07 07:37:37;;;;;;;;;1.00;1.00;;;;;17.63;62.53;100065.38;4825338;29;45493;-89
2021/08/07 07:40:06;;;;;;;;;2.00;2.00;;;;;17.76;62.33;100081.09;4826761;29;45407;-89
2021/08/07 07:42:32;;;;;;;;;2.00;1.00;;;;;17.77;62.35;100063.47;4833336;29;45444;-90
2021/08/07 07:44:57;;;;;;;;;2.00;2.00;;;;;17.78;62.29;100054.66;4842078;29;45341;-91
2021/08/07 07:47:23;;;;;;;;;3.00;3.00;;;;;17.85;62.26;100053.22;4843166;29;47490;-91
2021/08/07 07:49:51;;;;;;;;;1.67;1.67;;;;;17.93;62.31;100052.63;4829477;29;45484;-90
2021/08/07 07:52:18;;;;;;;;;3.00;3.00;;;;;18.01;62.43;100050.22;4846921;29;45305;-91
2021/08/07 07:54:44;;;;;;;;;3.67;1.67;;;;;18.06;61.89;100051.66;4842762;29;45332;-91
2021/08/07 07:57:09;;;;;;;;;2.33;2.00;;;;;18.15;62.28;100053.59;4840857;29;47404;-91
2021/08/07 07:59:42;;;;;;;;;3.00;1.00;;;;;18.29;61.91;100048.06;4827902;29;45528;-91
2021/08/07 08:02:10;;;;;;;;;2.00;2.00;;;;;18.41;61.71;100042.75;4832346;29;45543;-90
2021/08/07 08:04:38;;;;;;;;;3.33;2.33;;;;;18.51;61.32;100050.78;4823658;29;45643;-91
2021/08/07 08:07:03;;;;;;;;;1.00;1.00;;;;;18.56;61.25;100036.25;4832428;29;46707;-90
2021/08/07 08:09:29;;;;;;;;;3.00;1.00;;;;;18.64;61.02;100032.16;4857200;29;44816;-90
2021/08/07 08:11:55;;;;;;;;;1.33;1.33;;;;;18.69;61.31;100030.00;4856275;29;45463;-90
2021/08/07 08:14:23;;;;;;;;;1.33;1.00;;;;;18.77;60.57;100034.63;4850492;29;45506;-91
2021/08/07 08:16:49;;;;;;;;;2.33;2.00;;;;;18.83;60.86;100034.13;4826006;29;45719;-89
2021/08/07 08:19:15;;;;;;;;;3.00;1.00;;;;;18.92;60.67;100036.00;4828259;29;45282;-90
2021/08/07 08:21:40;;;;;;;;;1.00;1.00;;;;;18.98;60.23;100024.09;4837057;29;45297;-90
2021/08/07 08:24:06;;;;;;;;;1.33;1.33;;;;;19.08;60.10;100032.97;4845458;29;45317;-90
2021/08/07 08:26:34;;;;;;;;;1.00;1.00;;;;;19.16;60.08;100029.69;4842163;29;46692;-90
2021/08/07 08:29:00;;;;;;;;;3.00;2.00;;;;;19.23;59.74;100017.69;4842263;29;45472;-90
2021/08/07 08:31:25;;;;;;;;;3.33;2.00;;;;;19.30;59.76;100014.53;4841972;29;45421;-91
2021/08/07 08:33:56;;;;;;;;;3.67;1.00;;;;;19.41;58.86;100022.34;4858189;29;45718;-90
2021/08/07 08:36:21;;;;;;;;;3.00;1.00;;;;;19.49;58.62;100008.53;4826871;29;46969;-90
2021/08/07 08:38:47;;;;;;;;;0.33;0.33;;;;;19.53;58.36;100003.81;4836869;29;45356;-90
2021/08/07 08:41:23;;;;;;;;;1.67;1.33;;;;;19.60;58.29;100003.16;4827156;29;45440;-89
2021/08/07 08:43:49;;;;;;;;;1.33;0.67;;;;;19.67;58.26;99990.25;4849827;29;45601;-90
2021/08/07 08:46:33;;;;;;;;;1.00;1.00;;;;;19.74;58.04;99991.41;4840504;29;46916;-90
2021/08/07 08:48:58;;;;;;;;;3.00;1.00;;;;;19.81;57.89;99991.69;4848359;29;45522;-90
2021/08/07 08:51:31;;;;;;;;;0.00;0.00;;;;;19.83;57.26;99981.00;4855782;29;46135;-92
2021/08/07 08:53:57;;;;;;;;;1.00;1.00;;;;;19.82;57.29;99988.09;4843398;29;45325;-92
2021/08/07 08:56:23;;;;;;;;;1.00;0.67;;;;;19.84;57.06;99999.34;4827198;29;46892;-92
2021/08/07 08:58:49;;;;;;;;;1.00;1.00;;;;;19.83;57.05;99988.91;4845859;29;45448;-89
2021/08/07 09:01:18;;;;;;;;;1.00;1.00;;;;;19.83;57.51;99979.19;4850111;29;45413;-91
2021/08/07 09:03:45;;;;;;;;;2.00;0.00;;;;;19.83;57.86;99973.06;4828349;29;45272;-91
2021/08/07 09:06:14;;;;;;;;;3.67;1.33;;;;;19.86;58.00;99978.91;4831911;29;46107;-91
2021/08/07 09:08:57;;;;;;;;;1.67;1.00;;;;;19.93;57.97;99971.31;4841308;29;45492;-90
2021/08/07 09:11:23;;;;;;;;;1.00;1.00;;;;;19.94;57.64;99962.41;4839000;29;45713;-91
2021/08/07 09:13:48;;;;;;;;;2.00;1.00;;;;;19.96;57.67;99957.00;4837568;29;45301;-91
2021/08/07 09:16:14;;;;;;;;;1.67;1.00;;;;;19.92;57.49;99958.22;4845812;29;45487;-90
2021/08/07 09:18:41;;;;;;;;;1.00;1.00;;;;;19.89;57.29;99954.91;4844082;29;45240;-91
2021/08/07 09:21:17;;;;;;;;;0.67;0.67;;;;;19.86;57.51;99964.91;4827458;29;45326;-91
2021/08/07 09:23:44;;;;;;;;;1.00;1.00;;;;;19.80;58.02;99962.81;4826968;29;45523;-91
2021/08/07 09:26:23;;;;;;;;;2.33;2.33;;;;;19.77;58.91;99969.19;4845789;29;48117;-91
2021/08/07 09:28:57;;;;;;;;;2.33;1.00;;;;;19.62;59.70;99977.44;4843953;29;45753;-92
2021/08/07 09:31:28;;;;;;;;;2.00;2.00;;;;;19.49;60.00;99969.75;4826914;29;45355;-94
2021/08/07 09:34:25;;;;;;;;;2.33;2.00;;;;;19.36;60.63;99967.34;4843878;29;45719;-92
2021/08/07 09:36:55;;;;;;;;;1.00;1.00;;;;;19.32;61.13;99954.53;4848030;29;47517;-93
2021/08/07 09:39:39;;;;;;;;;1.00;1.00;;;;;19.26;62.67;99955.91;4828121;29;45357;-92
2021/08/07 09:42:07;;;;;;;;;2.00;2.00;;;;;19.28;62.01;99961.91;4827480;29;45426;-92
2021/08/07 09:44:36;;;;;;;;;1.67;1.00;;;;;19.24;61.61;99960.47;4844591;29;45483;-91
2021/08/07 09:47:10;;;;;;;;;4.00;1.67;;;;;19.23;61.81;99966.72;4844207;29;47103;-91
2021/08/07 09:49:38;;;;;;;;;3.00;1.33;;;;;19.22;62.04;99965.88;4856458;29;45733;-91
2021/08/07 09:52:05;;;;;;;;;2.67;1.00;;;;;19.22;62.03;99967.69;4826347;29;45452;-92
2021/08/07 09:54:40;;;;;;;;;1.00;1.00;;;;;19.22;62.47;99965.06;4842156;29;45847;-92
2021/08/07 09:57:06;;;;;;;;;2.00;1.00;;;;;19.25;62.00;99967.41;4827327;29;45532;-92
2021/08/07 09:59:43;;;;;;;;;1.00;1.00;;;;;19.28;62.05;99959.25;4843896;29;46130;-92
2021/08/07 10:02:38;;;;;;;;;2.00;1.00;;;;;19.38;62.32;99976.94;4834137;29;45362;-92
2021/08/07 10:05:24;;;;;;;;;1.00;1.00;;;;;19.43;62.41;99974.72;4773538;29;45479;-92
2021/08/07 10:08:02;;;;;;;;;0.33;0.00;;;;;19.53;62.40;99965.03;4788328;29;48177;-92
2021/08/07 10:10:28;;;;;;;;;1.00;1.00;;;;;19.62;61.41;99960.78;4776938;29;44881;-91
2021/08/07 10:12:54;;;;;;;;;4.00;1.00;;;;;19.65;61.51;99964.94;4774796;29;44962;-91
2021/08/07 10:15:19;;;;;;;;;0.67;0.67;;;;;19.64;61.38;99964.13;4788560;29;45585;-91
2021/08/07 10:17:45;;;;;;;;;2.33;1.00;;;;;19.64;61.06;99969.41;4785453;29;47315;-92
2021/08/07 10:20:12;;;;;;;;;4.00;2.33;;;;;19.61;61.55;99964.38;4787185;29;45527;-91
2021/08/07 10:22:37;;;;;;;;;1.33;1.33;;;;;19.62;61.78;99956.34;4773835;29;44839;-92
2021/08/07 10:25:06;;;;;;;;;1.00;1.00;;;;;19.62;60.92;99958.13;4786953;29;45498;-89
2021/08/07 10:27:34;;;;;;;;;0.00;0.00;;;;;19.53;61.05;99954.50;4769503;29;47220;-90
2021/08/07 10:30:01;;;;;;;;;0.00;0.00;;;;;19.45;61.35;99955.16;4772922;29;45518;-90
2021/08/07 10:32:28;;;;;;;;;1.33;0.00;;;;;19.42;61.48;99958.06;4788044;29;45487;-89
2021/08/07 10:34:54;;;;;;;;;3.00;1.00;;;;;19.31;61.86;99950.25;4785541;29;45385;-91
2021/08/07 10:37:21;;;;;;;;;2.00;0.67;;;;;19.23;61.90;99954.38;4772344;29;48018;-90
2021/08/07 10:39:47;;;;;;;;;4.00;2.00;;;;;19.22;62.28;99949.22;4786175;29;45470;-90
2021/08/07 10:42:16;;;;;;;;;0.33;0.33;;;;;19.20;62.69;99937.97;4818099;29;45524;-90
2021/08/07 10:44:44;;;;;;;;;1.00;1.00;;;;;19.27;63.82;99910.13;4831839;29;45562;-91
2021/08/07 10:47:09;;;;;;;;;0.00;0.00;;;;;19.38;63.39;99914.44;4862086;29;47224;-91
2021/08/07 10:49:41;;;;;;;;;1.00;1.00;;;;;19.50;63.12;99920.47;4851937;29;45312;-90
2021/08/07 10:52:22;;;;;;;;;1.00;1.00;;;;;19.63;63.71;99926.34;4857172;29;45347;-89
2021/08/07 10:54:53;;;;;;;;;1.00;1.00;;;;;19.73;63.09;99936.91;4850542;29;45444;-90
2021/08/07 10:57:35;;;;;;;;;3.00;1.00;;;;;19.77;63.06;99927.78;4836329;29;47625;-91
2021/08/07 11:00:24;;;;;;;;;1.00;1.00;;;;;19.82;62.89;99922.09;4834288;29;45590;-87
2021/08/07 11:03:09;;;;;;;;;4.00;2.67;;;;;19.93;63.07;99917.66;4841402;29;45453;-89
2021/08/07 11:05:49;;;;;;;;;2.00;2.00;;;;;20.05;62.90;99923.69;4838522;29;45422;-91
2021/08/07 11:08:16;;;;;;;;;1.00;1.00;;;;;20.11;61.95;99931.06;4824529;29;46170;-90
2021/08/07 11:10:42;;;;;;;;;3.33;2.00;;;;;20.10;61.87;99926.75;4824391;29;45659;-90
2021/08/07 11:13:23;;;;;;;;;2.00;2.00;;;;;20.04;61.68;99925.47;4835427;29;45348;-89
2021/08/07 11:16:19;;;;;;;;;2.00;1.67;;;;;20.01;61.11;99928.41;4823986;29;45556;-90
2021/08/07 11:18:48;;;;;;;;;2.00;1.00;;;;;19.98;61.79;99913.69;4830239;29;45517;-89
2021/08/07 11:21:55;;;;;;;;;2.00;1.67;;;;;19.98;61.86;99911.03;4839166;29;45505;-89
2021/08/07 11:25:00;;;;;;;;;2.67;1.00;;;;;19.96;61.60;99913.00;4845149;29;45417;-90
2021/08/07 11:27:55;;;;;;;;;1.33;1.00;;;;;19.98;62.25;99918.09;4818542;29;45425;-89
2021/08/07 11:30:23;;;;;;;;;1.00;1.00;;;;;20.13;62.05;99903.53;4823787;29;45614;-89
2021/08/07 11:33:01;;;;;;;;;0.67;0.67;;;;;20.45;62.66;99892.84;4823281;29;45601;-89